Time;durP1;ratioP1;P1;durP2;ratioP2;P2;SDS_P1;SDS_P2;PMS_P1;PMS_P2;Temp;Humidity;BMP_temperature;BMP_pressure;BME280_temperature;BME280_humidity;BME280_pressure;Samples;Min_cycle;Max_cycle;Signal;HPM_P1;HPM_P2
2023/11/24 00:02:01;;;;;;;1.87;1.30;;;;;;;6.98;73.12;97046.84;6221738;28;20463;-58
2023/11/24 00:05:07;;;;;;;1.17;1.07;;;;;;;6.90;74.39;97052.53;6221967;28;20209;-57
2023/11/24 00:08:09;;;;;;;2.57;1.50;;;;;;;7.23;73.37;97043.09;6222490;28;20223;-57
2023/11/24 00:11:11;;;;;;;1.40;1.30;;;;;;;7.13;73.91;97027.00;6221004;28;20350;-58
2023/11/24 00:14:15;;;;;;;1.50;1.20;;;;;;;6.91;73.93;97009.13;6220607;28;20198;-56
2023/11/24 00:17:18;;;;;;;1.50;1.40;;;;;;;7.29;73.26;97047.47;6220922;28;20204;-57
2023/11/24 00:20:21;;;;;;;1.87;1.40;;;;;;;7.04;75.31;97023.13;6221156;28;20185;-58
2023/11/24 00:23:24;;;;;;;1.37;1.27;;;;;;;6.89;76.84;97019.13;6220370;28;20231;-54
2023/11/24 00:26:26;;;;;;;2.17;1.23;;;;;;;6.93;76.90;97022.13;6220904;28;20200;-55
2023/11/24 00:29:34;;;;;;;1.43;1.33;;;;;;;7.13;74.92;97021.72;6217456;28;20212;-55
2023/11/24 00:32:36;;;;;;;1.73;1.23;;;;;;;6.91;76.60;97021.56;6221083;28;20216;-55
2023/11/24 00:35:39;;;;;;;1.50;1.40;;;;;;;6.87;76.65;97021.22;6220132;28;20612;-53
2023/11/24 00:38:42;;;;;;;4.93;1.20;;;;;;;6.93;77.30;97027.41;6219750;28;20208;-55
2023/11/24 00:41:44;;;;;;;2.73;1.40;;;;;;;6.80;78.12;97002.03;6220907;28;20213;-53
2023/11/24 00:44:46;;;;;;;1.60;1.30;;;;;;;6.92;77.99;97005.44;6204729;28;20196;-53
2023/11/24 00:47:48;;;;;;;1.60;1.40;;;;;;;6.95;76.68;97004.97;6220470;28;20200;-57
2023/11/24 00:50:51;;;;;;;1.43;1.20;;;;;;;7.14;76.51;97002.13;6219524;28;20194;-58
2023/11/24 00:53:53;;;;;;;1.30;1.20;;;;;;;6.98;76.89;96996.56;6220654;28;20687;-57
2023/11/24 00:56:55;;;;;;;1.30;1.20;;;;;;;7.08;76.52;96998.59;6203231;28;20575;-55
2023/11/24 00:59:57;;;;;;;1.40;1.30;;;;;;;6.91;78.83;97006.47;6220347;28;20568;-55
2023/11/24 01:02:59;;;;;;;1.67;1.57;;;;;;;6.91;78.36;97003.84;6220498;28;20434;-57
2023/11/24 01:06:03;;;;;;;1.60;1.50;;;;;;;7.01;78.07;96990.00;6221126;28;20199;-57
2023/11/24 01:09:05;;;;;;;1.80;1.57;;;;;;;6.91;79.57;96958.81;6216490;28;20688;-53
2023/11/24 01:12:08;;;;;;;2.47;1.47;;;;;;;7.35;76.65;96903.44;6219512;28;20212;-58
2023/11/24 01:15:10;;;;;;;2.13;1.63;;;;;;;7.26;76.69;96939.31;6218978;28;20207;-58
2023/11/24 01:18:12;;;;;;;1.83;1.50;;;;;;;7.39;77.14;96909.06;6219658;28;20200;-58
2023/11/24 01:21:17;;;;;;;1.90;1.67;;;;;;;7.54;76.46;96900.53;6235430;28;20215;-58
2023/11/24 01:24:19;;;;;;;3.10;1.73;;;;;;;7.49;76.51;96899.44;6219591;28;20184;-58
2023/11/24 01:27:21;;;;;;;1.60;1.50;;;;;;;7.58;76.08;96854.78;6219638;28;20214;-61
2023/11/24 01:30:23;;;;;;;1.47;1.30;;;;;;;7.66;75.43;96882.72;6218357;28;20212;-55
2023/11/24 01:33:26;;;;;;;2.10;1.60;;;;;;;7.44;77.40;96864.13;6219645;28;20239;-57
2023/11/24 01:36:28;;;;;;;1.73;1.60;;;;;;;7.74;76.25;96845.22;6215312;28;20192;-58
2023/11/24 01:39:30;;;;;;;2.57;1.50;;;;;;;7.63;77.26;96846.88;6221021;28;20209;-55
2023/11/24 01:42:39;;;;;;;1.77;1.60;;;;;;;7.79;76.91;96842.63;6219609;28;20212;-52
2023/11/24 01:45:44;;;;;;;2.10;1.70;;;;;;;7.84;76.53;96823.34;6208895;28;20206;-55
2023/11/24 01:48:46;;;;;;;2.10;1.50;;;;;;;7.83;77.15;96803.97;6219004;28;20192;-56
2023/11/24 01:51:49;;;;;;;1.30;1.20;;;;;;;8.02;76.78;96810.56;6217758;28;20204;-54
2023/11/24 01:54:53;;;;;;;2.00;1.20;;;;;;;7.92;77.71;96807.78;6218050;28;20286;-57
2023/11/24 01:57:56;;;;;;;1.80;1.10;;;;;;;8.08;77.24;96773.47;6220955;28;20189;-57
2023/11/24 02:00:58;;;;;;;1.43;1.27;;;;;;;7.96;77.79;96758.50;6218339;28;20203;-56
2023/11/24 02:04:01;;;;;;;2.17;1.37;;;;;;;7.85;78.20;96758.66;6217926;28;20295;-58
2023/11/24 02:07:04;;;;;;;1.37;1.17;;;;;;;7.86;78.93;96774.31;6217445;28;20208;-60
2023/11/24 02:10:06;;;;;;;1.70;1.47;;;;;;;7.99;77.77;96715.59;6215949;28;20206;-61
2023/11/24 02:13:09;;;;;;;1.00;0.90;;;;;;;7.93;79.06;96726.38;6216909;28;20195;-60
2023/11/24 02:16:11;;;;;;;2.47;1.10;;;;;;;7.99;78.62;96723.56;6217455;28;20647;-60
2023/11/24 02:19:14;;;;;;;1.87;1.00;;;;;;;8.14;78.34;96699.03;6218615;28;20192;-60
2023/11/24 02:22:16;;;;;;;1.30;1.10;;;;;;;7.93;79.93;96705.16;6216947;28;20216;-60
2023/11/24 02:25:18;;;;;;;1.20;1.10;;;;;;;7.92;79.93;96706.22;6217508;28;20697;-59
2023/11/24 02:28:21;;;;;;;1.30;1.20;;;;;;;7.84;80.93;96693.41;6231007;28;20212;-58
2023/11/24 02:31:23;;;;;;;1.23;1.03;;;;;;;8.05;79.78;96687.28;6219772;28;20232;-56
2023/11/24 02:34:28;;;;;;;1.00;0.90;;;;;;;7.95;81.27;96672.06;6218254;28;20196;-59
2023/11/24 02:37:30;;;;;;;0.80;0.80;;;;;;;7.86;82.49;96676.19;6216348;28;20227;-49
2023/11/24 02:40:32;;;;;;;2.53;0.73;;;;;;;8.03;83.92;96662.88;6218162;28;20200;-60
2023/11/24 02:43:34;;;;;;;1.10;0.87;;;;;;;7.96;85.66;96665.69;6214962;28;20203;-59
2023/11/24 02:46:37;;;;;;;1.00;0.90;;;;;;;7.82;90.29;96661.81;6217054;28;20232;-60
2023/11/24 02:49:39;;;;;;;1.07;0.87;;;;;;;7.70;91.94;96677.09;6217640;28;20208;-55
2023/11/24 02:52:41;;;;;;;2.03;0.93;;;;;;;7.78;90.47;96657.28;6216051;28;20535;-59
2023/11/24 02:55:43;;;;;;;1.03;0.73;;;;;;;7.72;93.00;96685.56;6218059;28;20232;-58
2023/11/24 02:58:45;;;;;;;1.07;0.80;;;;;;;7.40;95.99;96641.22;6217937;28;20768;-57
2023/11/24 03:01:47;;;;;;;2.30;0.90;;;;;;;7.32;98.69;96631.03;6218502;28;20229;-55
2023/11/24 03:04:49;;;;;;;0.80;0.80;;;;;;;7.38;99.71;96622.09;6219907;28;20688;-59
2023/11/24 03:07:52;;;;;;;3.10;0.87;;;;;;;7.20;100.00;96617.94;6218369;28;20220;-58
2023/11/24 03:10:54;;;;;;;1.07;0.93;;;;;;;6.96;100.00;96590.88;6217964;28;20275;-58
2023/11/24 03:13:55;;;;;;;0.90;0.90;;;;;;;7.19;100.00;96581.09;6217700;28;20602;-57
2023/11/24 03:16:58;;;;;;;2.03;1.03;;;;;;;7.05;100.00;96603.72;6217546;28;20361;-55
2023/11/24 03:20:00;;;;;;;1.10;0.80;;;;;;;6.97;100.00;96586.38;6229870;28;20760;-58
2023/11/24 03:23:02;;;;;;;1.93;0.60;;;;;;;7.06;100.00;96581.47;6218900;28;20216;-57
2023/11/24 03:26:09;;;;;;;1.03;0.60;;;;;;;7.05;100.00;96593.91;6232795;28;20205;-60
2023/11/24 03:29:11;;;;;;;0.50;0.50;;;;;;;7.23;99.78;96568.94;6214947;28;20206;-61
2023/11/24 03:32:13;;;;;;;0.30;0.30;;;;;;;7.36;98.52;96581.81;6217308;28;20228;-56
2023/11/24 03:35:15;;;;;;;0.80;0.50;;;;;;;7.16;97.84;96579.75;6216046;28;20349;-54
2023/11/24 03:38:18;;;;;;;2.03;0.60;;;;;;;7.29;96.02;96594.47;6215662;28;20205;-57
2023/11/24 03:41:20;;;;;;;0.47;0.43;;;;;;;7.42;95.60;96612.63;6217096;28;20338;-56
2023/11/24 03:44:22;;;;;;;0.73;0.57;;;;;;;7.49;94.41;96607.94;6217414;28;20675;-51
2023/11/24 03:47:25;;;;;;;0.40;0.40;;;;;;;7.39;91.71;96556.66;6217441;28;20368;-58
2023/11/24 03:50:28;;;;;;;0.40;0.40;;;;;;;7.66;91.48;96622.97;6217409;28;20200;-55
2023/11/24 03:53:30;;;;;;;0.60;0.50;;;;;;;7.73;91.95;96583.78;6216547;28;20196;-55
2023/11/24 03:56:32;;;;;;;0.57;0.57;;;;;;;7.63;91.76;96589.00;6219197;28;20199;-54
2023/11/24 03:59:34;;;;;;;0.37;0.37;;;;;;;7.81;90.38;96599.25;6215928;28;20216;-54
2023/11/24 04:02:36;;;;;;;0.50;0.50;;;;;;;7.71;91.88;96601.81;6215330;28;20307;-56
2023/11/24 04:05:38;;;;;;;0.60;0.60;;;;;;;7.69;90.52;96572.91;6215151;28;20201;-61
2023/11/24 04:08:42;;;;;;;0.60;0.60;;;;;;;7.59;91.35;96580.75;6216581;28;20212;-59
2023/11/24 04:11:44;;;;;;;2.90;0.87;;;;;;;7.46;91.78;96562.59;6220817;28;20657;-57
2023/11/24 04:14:47;;;;;;;0.90;0.70;;;;;;;7.72;90.03;96568.94;6219384;28;20212;-61
2023/11/24 04:17:49;;;;;;;2.37;0.80;;;;;;;7.54;90.55;96593.13;6219426;28;20205;-61
2023/11/24 04:20:51;;;;;;;1.00;0.70;;;;;;;7.36;92.27;96575.72;6219249;28;20622;-56
2023/11/24 04:23:53;;;;;;;0.70;0.70;;;;;;;7.67;89.29;96590.88;6220616;28;20675;-60
2023/11/24 04:26:55;;;;;;;0.80;0.67;;;;;;;7.76;88.45;96578.78;6220512;28;20729;-58
2023/11/24 04:29:58;;;;;;;0.97;0.87;;;;;;;7.52;91.67;96579.34;6218527;28;20222;-55
2023/11/24 04:33:02;;;;;;;2.47;0.60;;;;;;;7.57;91.86;96585.50;6221428;28;20308;-60
2023/11/24 04:36:04;;;;;;;0.97;0.83;;;;;;;7.59;90.89;96599.31;6217815;28;20274;-59
2023/11/24 04:39:06;;;;;;;0.80;0.80;;;;;;;7.56;89.89;96556.59;6220464;28;20266;-56
2023/11/24 04:42:08;;;;;;;2.40;1.10;;;;;;;7.47;92.43;96556.22;6220024;28;20825;-55
2023/11/24 04:45:11;;;;;;;2.40;1.20;;;;;;;7.53;91.54;96543.84;6220762;28;20212;-58
2023/11/24 04:48:13;;;;;;;1.63;1.00;;;;;;;7.61;91.34;96540.75;6221348;28;20227;-58
2023/11/24 04:51:15;;;;;;;1.77;1.30;;;;;;;7.41;93.28;96522.78;6219976;28;20696;-56
2023/11/24 04:54:19;;;;;;;1.60;1.00;;;;;;;7.36;93.52;96520.88;6219749;28;20196;-56
2023/11/24 04:57:21;;;;;;;1.30;1.10;;;;;;;7.31;91.38;96514.75;6219798;28;20669;-53
2023/11/24 05:00:23;;;;;;;1.30;1.10;;;;;;;7.54;91.58;96519.75;6220443;28;20209;-57
2023/11/24 05:03:25;;;;;;;1.43;1.10;;;;;;;7.44;93.11;96491.31;6220679;28;20222;-56
2023/11/24 05:06:27;;;;;;;1.93;1.33;;;;;;;7.58;90.90;96499.63;6222733;28;20195;-56
2023/11/24 05:09:30;;;;;;;2.40;1.10;;;;;;;7.42;92.37;96489.94;6220617;28;20185;-57
2023/11/24 05:12:34;;;;;;;1.43;1.13;;;;;;;7.44;91.57;96501.91;6220141;28;20241;-54
2023/11/24 05:15:38;;;;;;;1.30;1.20;;;;;;;7.38;92.74;96480.88;6219958;28;20227;-60
2023/11/24 05:18:41;;;;;;;1.10;1.00;;;;;;;7.28;94.04;96486.09;6219704;28;20207;-57
2023/11/24 05:21:43;;;;;;;1.63;1.10;;;;;;;7.47;91.65;96490.78;6218920;28;20211;-53
2023/11/24 05:24:45;;;;;;;1.60;1.03;;;;;;;7.50;91.24;96470.94;6221077;28;20250;-60
2023/11/24 05:27:48;;;;;;;1.50;1.20;;;;;;;7.39;92.55;96479.84;6219889;28;20680;-56
2023/11/24 05:30:51;;;;;;;1.20;1.10;;;;;;;7.37;92.66;96468.69;6217648;28;20380;-57
2023/11/24 05:33:54;;;;;;;1.40;1.30;;;;;;;7.39;92.55;96474.53;6219301;28;20211;-59
2023/11/24 05:36:56;;;;;;;1.70;1.40;;;;;;;7.62;90.53;96498.06;6218912;28;20200;-52
2023/11/24 05:40:01;;;;;;;1.50;1.20;;;;;;;7.28;91.54;96447.16;6219129;28;20653;-54
2023/11/24 05:43:03;;;;;;;1.63;1.40;;;;;;;7.61;91.16;96477.13;6218781;28;20293;-54
2023/11/24 05:46:06;;;;;;;1.80;1.70;;;;;;;7.48;91.64;96473.84;6219284;28;20193;-56
2023/11/24 05:49:09;;;;;;;1.50;1.40;;;;;;;7.53;91.89;96504.88;6219611;28;20200;-54
2023/11/24 05:52:14;;;;;;;1.67;1.50;;;;;;;7.44;92.14;96509.84;6219018;28;20692;-55
2023/11/24 05:55:16;;;;;;;1.40;1.30;;;;;;;7.46;92.79;96499.78;6216104;28;20199;-50
2023/11/24 05:58:18;;;;;;;1.67;1.57;;;;;;;7.19;92.39;96497.16;6221111;28;20199;-55
2023/11/24 06:01:20;;;;;;;1.40;1.30;;;;;;;7.54;90.52;96524.22;6218152;28;20275;-56
2023/11/24 06:04:22;;;;;;;1.67;1.40;;;;;;;7.34;93.87;96520.34;6218421;28;20236;-54
2023/11/24 06:07:26;;;;;;;2.07;1.60;;;;;;;7.42;92.38;96549.03;6215409;28;20220;-55
2023/11/24 06:10:29;;;;;;;2.80;1.20;;;;;;;7.05;95.17;96585.97;6218900;28;20278;-53
2023/11/24 06:13:32;;;;;;;1.47;0.83;;;;;;;6.31;96.12;96620.66;6215359;28;20571;-51
2023/11/24 06:16:35;;;;;;;0.50;0.50;;;;;;;5.84;98.44;96625.38;6219243;28;20778;-51
2023/11/24 06:19:37;;;;;;;1.00;0.70;;;;;;;5.48;100.00;96630.00;6216474;28;20200;-53
2023/11/24 06:22:40;;;;;;;0.73;0.30;;;;;;;5.16;100.00;96653.38;6218440;28;20297;-53
2023/11/24 06:25:43;;;;;;;0.50;0.27;;;;;;;4.79;100.00;96642.28;6218920;28;20194;-53
2023/11/24 06:28:46;;;;;;;0.90;0.40;;;;;;;4.82;100.00;96653.16;6217514;28;20237;-53
2023/11/24 06:31:49;;;;;;;0.33;0.30;;;;;;;4.70;100.00;96626.00;6220154;28;20267;-51
2023/11/24 06:34:51;;;;;;;0.30;0.30;;;;;;;4.64;100.00;96651.47;6219304;28;20200;-52
2023/11/24 06:37:53;;;;;;;1.40;0.43;;;;;;;4.35;100.00;96645.25;6218444;28;20198;-50
2023/11/24 06:40:56;;;;;;;0.67;0.20;;;;;;;4.32;100.00;96661.50;6218958;28;20282;-52
2023/11/24 06:43:58;;;;;;;0.40;0.20;;;;;;;4.32;100.00;96660.72;6217901;28;20201;-49
2023/11/24 06:47:01;;;;;;;1.03;0.30;;;;;;;4.26;100.00;96643.97;6218115;28;20207;-53
2023/11/24 06:50:04;;;;;;;1.43;0.20;;;;;;;4.05;100.00;96636.63;6219791;28;20219;-50
2023/11/24 06:53:06;;;;;;;0.23;0.20;;;;;;;4.03;100.00;96636.00;6217956;28;20569;-50
2023/11/24 06:56:08;;;;;;;1.10;0.50;;;;;;;3.98;100.00;96641.16;6217502;28;20197;-49
2023/11/24 06:59:11;;;;;;;0.33;0.30;;;;;;;3.90;100.00;96638.88;6219570;28;20231;-50
2023/11/24 07:02:14;;;;;;;0.20;0.20;;;;;;;3.86;100.00;96634.03;6216065;28;20209;-50
2023/11/24 07:05:17;;;;;;;0.30;0.17;;;;;;;3.68;100.00;96610.38;6217281;28;20255;-49
2023/11/24 07:08:20;;;;;;;0.10;0.10;;;;;;;3.90;100.00;96629.13;6219375;28;20200;-48
2023/11/24 07:11:22;;;;;;;0.30;0.20;;;;;;;4.03;100.00;96630.75;6217899;28;20201;-48
2023/11/24 07:14:24;;;;;;;0.37;0.20;;;;;;;4.13;100.00;96629.16;6217894;28;20231;-51
2023/11/24 07:17:27;;;;;;;0.63;0.60;;;;;;;4.15;100.00;96618.41;6217338;28;20676;-47
2023/11/24 07:20:29;;;;;;;1.60;0.40;;;;;;;4.19;100.00;96616.94;6217097;28;20197;-49
2023/11/24 07:23:32;;;;;;;0.10;0.10;;;;;;;4.09;100.00;96604.31;6219257;28;20192;-48
2023/11/24 07:26:34;;;;;;;0.23;0.23;;;;;;;4.10;100.00;96608.53;6217607;28;20216;-52
2023/11/24 07:29:37;;;;;;;1.13;0.20;;;;;;;3.97;100.00;96613.22;6214788;28;20331;-53
2023/11/24 07:32:39;;;;;;;0.67;0.27;;;;;;;3.79;100.00;96596.47;6217151;28;20606;-48
2023/11/24 07:35:43;;;;;;;0.90;0.70;;;;;;;3.82;100.00;96587.28;6216397;28;20209;-50
2023/11/24 07:38:55;;;;;;;0.67;0.23;;;;;;;4.36;100.00;96595.97;6218898;28;20688;-53
2023/11/24 07:42:08;;;;;;;0.37;0.30;;;;;;;4.49;100.00;96605.50;6221752;28;20720;-52
2023/11/24 07:45:32;;;;;;;0.20;0.20;;;;;;;4.34;100.00;96593.56;6219389;28;20201;-52
2023/11/24 07:48:43;;;;;;;0.30;0.30;;;;;;;4.75;100.00;96581.28;6223792;28;20268;-50
2023/11/24 07:52:05;;;;;;;2.23;0.30;;;;;;;4.79;100.00;96600.88;6223269;28;20688;-50
2023/11/24 07:56:53;;;;;;;1.10;0.30;;;;;;;4.97;100.00;96599.13;6221787;28;20201;-52
2023/11/24 08:00:31;;;;;;;0.30;0.20;;;;;;;4.98;100.00;96606.03;6207124;28;20336;-52
2023/11/24 08:04:09;;;;;;;0.30;0.20;;;;;;;4.93;100.00;96609.38;6176601;28;20316;-50
2023/11/24 08:07:11;;;;;;;2.07;0.40;;;;;;;4.68;100.00;96612.25;6217010;28;20778;-53
2023/11/24 08:10:13;;;;;;;0.20;0.20;;;;;;;4.66;100.00;96604.56;6217100;28;20668;-52
2023/11/24 08:13:15;;;;;;;0.73;0.60;;;;;;;4.83;100.00;96609.94;6216151;28;20278;-53
2023/11/24 08:16:17;;;;;;;0.40;0.30;;;;;;;4.55;100.00;96592.19;6218046;28;20211;-53
2023/11/24 08:19:22;;;;;;;0.60;0.30;;;;;;;4.72;100.00;96612.56;6216619;28;20236;-49
2023/11/24 08:22:26;;;;;;;0.93;0.30;;;;;;;4.85;100.00;96583.31;6216512;28;21002;-52
2023/11/24 08:25:28;;;;;;;0.60;0.20;;;;;;;4.59;100.00;96595.16;6216899;28;20283;-48
2023/11/24 08:28:30;;;;;;;1.10;0.20;;;;;;;4.65;100.00;96602.94;6216007;28;20208;-47
2023/11/24 08:31:32;;;;;;;0.97;0.33;;;;;;;4.75;100.00;96570.72;6218402;28;20305;-45
2023/11/24 08:34:34;;;;;;;0.40;0.27;;;;;;;4.74;100.00;96565.69;6222354;28;20189;-52
2023/11/24 08:37:36;;;;;;;0.60;0.30;;;;;;;4.56;100.00;96585.06;6220674;28;20199;-50
2023/11/24 08:40:39;;;;;;;0.97;0.60;;;;;;;4.35;100.00;96565.34;6219013;28;20644;-50
2023/11/24 08:43:41;;;;;;;0.80;0.47;;;;;;;4.47;100.00;96578.53;6220090;28;20217;-51
2023/11/24 08:46:43;;;;;;;0.70;0.33;;;;;;;4.51;100.00;96591.03;6220280;28;20489;-51
2023/11/24 08:49:45;;;;;;;1.90;0.43;;;;;;;4.53;100.00;96575.78;6221324;28;20184;-48
2023/11/24 08:52:47;;;;;;;0.43;0.27;;;;;;;4.45;100.00;96584.03;6220597;28;20863;-52
2023/11/24 08:55:50;;;;;;;0.90;0.47;;;;;;;4.54;100.00;96577.41;6220355;28;20680;-52
2023/11/24 08:58:52;;;;;;;0.77;0.50;;;;;;;4.55;100.00;96578.19;6220225;28;20192;-51
2023/11/24 09:01:55;;;;;;;3.60;0.57;;;;;;;4.61;100.00;96580.69;6221079;28;20648;-51
2023/11/24 09:04:57;;;;;;;1.77;0.40;;;;;;;4.64;100.00;96579.44;6220323;28;20223;-49
2023/11/24 09:07:59;;;;;;;1.37;0.40;;;;;;;4.65;100.00;96562.59;6220210;28;20192;-50
2023/11/24 09:11:01;;;;;;;1.33;0.50;;;;;;;4.65;100.00;96544.13;6217231;28;20339;-47
2023/11/24 09:14:04;;;;;;;2.50;0.30;;;;;;;4.76;100.00;96545.94;6220345;28;20241;-50
2023/11/24 09:17:07;;;;;;;2.73;0.37;;;;;;;4.85;100.00;96549.03;6220269;28;20204;-51
2023/11/24 09:20:10;;;;;;;2.17;0.40;;;;;;;4.83;100.00;96554.53;6220020;28;20194;-53
2023/11/24 09:23:12;;;;;;;2.80;0.60;;;;;;;4.92;100.00;96531.19;6213383;28;20205;-50
2023/11/24 09:26:14;;;;;;;1.40;0.50;;;;;;;5.04;100.00;96510.06;6222158;28;20680;-50
2023/11/24 09:29:16;;;;;;;0.87;0.60;;;;;;;5.25;100.00;96530.53;6216936;28;20693;-51
2023/11/24 09:32:19;;;;;;;0.33;0.30;;;;;;;5.25;100.00;96537.66;6207148;28;20702;-51
2023/11/24 09:35:24;;;;;;;1.03;0.40;;;;;;;5.29;100.00;96530.88;6194255;28;20202;-49
2023/11/24 09:38:26;;;;;;;1.43;0.50;;;;;;;5.20;100.00;96509.31;6181637;28;20231;-53
2023/11/24 09:41:31;;;;;;;1.67;0.33;;;;;;;5.17;100.00;96505.31;6190299;28;20684;-53
2023/11/24 09:44:33;;;;;;;2.77;0.53;;;;;;;5.25;100.00;96511.25;6185470;28;20201;-50
2023/11/24 09:47:35;;;;;;;0.50;0.40;;;;;;;4.99;100.00;96468.53;6195890;28;20241;-50
2023/11/24 09:50:43;;;;;;;1.07;0.30;;;;;;;5.15;100.00;96502.09;6192941;28;20791;-50
2023/11/24 09:53:45;;;;;;;0.97;0.30;;;;;;;5.18;100.00;96498.19;6196547;28;20206;-46
2023/11/24 09:56:47;;;;;;;0.93;0.23;;;;;;;5.25;100.00;96498.84;6197137;28;20569;-48
2023/11/24 09:59:50;;;;;;;2.33;0.40;;;;;;;5.31;100.00;96497.88;6195688;28;20203;-52
2023/11/24 10:02:52;;;;;;;1.03;0.30;;;;;;;5.31;100.00;96489.97;6197428;28;20558;-50
2023/11/24 10:05:54;;;;;;;0.80;0.20;;;;;;;5.33;100.00;96479.97;6197485;28;20582;-51
2023/11/24 10:08:57;;;;;;;0.77;0.20;;;;;;;5.33;100.00;96461.50;6198143;28;20662;-49
2023/11/24 10:12:00;;;;;;;1.90;0.43;;;;;;;5.28;100.00;96427.09;6196403;28;20683;-52
2023/11/24 10:15:04;;;;;;;1.47;0.40;;;;;;;5.50;100.00;96442.22;6197140;28;20647;-53
2023/11/24 10:18:07;;;;;;;0.70;0.30;;;;;;;5.58;100.00;96452.41;6194773;28;20595;-50
2023/11/24 10:21:10;;;;;;;1.60;0.40;;;;;;;5.65;100.00;96442.47;6195128;28;20682;-48
2023/11/24 10:24:39;;;;;;;0.40;0.20;;;;;;;5.85;98.09;96415.53;6195179;28;20346;-52
2023/11/24 10:27:41;;;;;;;2.73;0.43;;;;;;;5.94;99.65;96417.56;6198645;28;20195;-55
2023/11/24 10:30:44;;;;;;;0.70;0.40;;;;;;;5.94;98.43;96406.19;6196824;28;20203;-51
2023/11/24 10:33:46;;;;;;;0.70;0.30;;;;;;;6.10;92.50;96381.53;6192803;28;20228;-49
2023/11/24 10:36:49;;;;;;;0.67;0.30;;;;;;;6.03;93.12;96388.88;6191848;28;20208;-48
2023/11/24 10:39:55;;;;;;;1.47;0.30;;;;;;;6.09;90.92;96395.03;6192942;28;20202;-54
2023/11/24 10:42:57;;;;;;;0.20;0.20;;;;;;;6.11;93.35;96400.88;6175500;28;20318;-52
2023/11/24 10:46:03;;;;;;;0.63;0.30;;;;;;;6.26;89.77;96376.47;6192804;28;20197;-49
2023/11/24 10:49:29;;;;;;;0.20;0.20;;;;;;;6.20;89.86;96367.66;6192409;28;20205;-49
2023/11/24 10:52:36;;;;;;;0.40;0.30;;;;;;;6.12;91.72;96370.75;6192098;28;20205;-51
2023/11/24 10:55:38;;;;;;;0.30;0.30;;;;;;;6.06;94.14;96359.31;6191647;28;20238;-53
2023/11/24 10:58:42;;;;;;;0.30;0.30;;;;;;;6.17;90.25;96368.97;6190025;28;20200;-53
2023/11/24 11:01:45;;;;;;;0.53;0.30;;;;;;;6.16;89.09;96371.84;6191946;28;20355;-53
2023/11/24 11:05:33;;;;;;;1.13;0.30;;;;;;;5.96;90.70;96367.13;6175020;28;20215;-50
2023/11/24 11:08:56;;;;;;;0.53;0.30;;;;;;;5.80;93.38;96362.63;6169622;28;20210;-50
2023/11/24 11:12:13;;;;;;;0.20;0.20;;;;;;;5.86;89.33;96367.75;6191461;28;20199;-52
2023/11/24 11:15:17;;;;;;;0.73;0.33;;;;;;;5.70;89.32;96358.78;6187416;28;20293;-50
2023/11/24 11:18:25;;;;;;;0.80;0.40;;;;;;;5.63;94.68;96354.72;6191953;28;20281;-54
2023/11/24 11:21:30;;;;;;;0.77;0.30;;;;;;;5.62;93.66;96355.78;6191837;28;20930;-53
2023/11/24 11:24:34;;;;;;;0.40;0.30;;;;;;;5.50;93.48;96332.09;6192083;28;20294;-50
2023/11/24 11:27:36;;;;;;;1.27;0.50;;;;;;;5.64;94.28;96343.13;6173831;28;20299;-52
2023/11/24 11:30:41;;;;;;;0.87;0.40;;;;;;;5.70;94.19;96368.56;6190595;28;20273;-51
2023/11/24 11:33:47;;;;;;;0.50;0.30;;;;;;;5.68;91.84;96370.66;6152377;28;1183560;-49
2023/11/24 11:37:07;;;;;;;1.20;0.30;;;;;;;5.63;90.88;96362.66;6191671;28;20656;-51
2023/11/24 11:40:15;;;;;;;0.43;0.30;;;;;;;5.60;91.44;96363.94;6192372;28;20247;-52
2023/11/24 11:43:18;;;;;;;0.30;0.23;;;;;;;5.66;88.02;96352.41;6157299;28;20549;-53
2023/11/24 11:46:23;;;;;;;0.53;0.30;;;;;;;5.67;89.18;96379.63;6192826;28;20582;-50
2023/11/24 11:49:25;;;;;;;0.30;0.30;;;;;;;5.72;87.65;96366.50;6175566;28;20185;-52
2023/11/24 11:52:28;;;;;;;0.10;0.10;;;;;;;5.55;88.42;96329.50;6192258;28;20190;-52
2023/11/24 11:55:30;;;;;;;0.63;0.30;;;;;;;5.62;88.14;96330.16;6189512;28;20191;-52
2023/11/24 11:58:34;;;;;;;0.87;0.20;;;;;;;5.47;89.19;96319.38;6192560;28;20198;-53
2023/11/24 12:01:37;;;;;;;0.27;0.23;;;;;;;5.29;95.53;96280.81;6192566;28;20286;-53
2023/11/24 12:04:39;;;;;;;0.77;0.37;;;;;;;5.42;94.27;96298.19;6191737;28;20238;-50
2023/11/24 12:07:44;;;;;;;0.30;0.30;;;;;;;5.38;91.32;96284.66;6192846;28;20604;-48
2023/11/24 12:10:46;;;;;;;0.80;0.30;;;;;;;5.46;88.76;96293.19;6190997;28;20747;-53
2023/11/24 12:13:50;;;;;;;0.60;0.40;;;;;;;5.38;87.68;96287.28;6175183;28;20631;-51
2023/11/24 12:16:53;;;;;;;0.83;0.30;;;;;;;5.37;91.03;96275.13;6189975;28;20203;-53
2023/11/24 12:19:56;;;;;;;0.33;0.27;;;;;;;5.36;91.21;96280.66;6192581;28;20246;-53
2023/11/24 12:22:59;;;;;;;2.83;0.50;;;;;;;5.36;88.75;96302.56;6192651;28;20224;-52
2023/11/24 12:26:02;;;;;;;1.37;0.30;;;;;;;5.35;88.32;96308.09;6191621;28;20701;-53
2023/11/24 12:29:13;;;;;;;0.20;0.20;;;;;;;5.33;84.97;96326.03;6190072;28;20682;-53
2023/11/24 12:32:15;;;;;;;1.07;0.27;;;;;;;5.37;85.12;96319.25;6198711;28;20611;-52
2023/11/24 12:35:17;;;;;;;0.60;0.23;;;;;;;5.23;88.82;96312.69;6202588;28;20190;-53
2023/11/24 12:38:20;;;;;;;0.40;0.20;;;;;;;4.98;85.59;96268.22;6170581;28;20208;-52
2023/11/24 12:41:22;;;;;;;0.60;0.27;;;;;;;5.26;85.62;96289.22;6201205;28;20208;-53
2023/11/24 12:44:29;;;;;;;1.30;0.30;;;;;;;5.23;83.12;96286.28;6203880;28;20216;-50
2023/11/24 12:47:31;;;;;;;0.30;0.20;;;;;;;5.30;82.39;96260.50;6200796;28;20779;-51
2023/11/24 12:50:36;;;;;;;0.57;0.30;;;;;;;5.15;87.41;96276.91;6195396;28;20391;-52
2023/11/24 12:53:38;;;;;;;0.30;0.30;;;;;;;5.06;85.83;96273.88;6199973;28;20199;-52
2023/11/24 12:56:40;;;;;;;0.70;0.20;;;;;;;5.01;87.32;96270.38;6202086;28;20203;-52
2023/11/24 12:59:42;;;;;;;1.20;0.33;;;;;;;4.87;86.73;96272.53;6203650;28;20328;-51
2023/11/24 13:02:45;;;;;;;0.80;0.40;;;;;;;4.72;86.55;96235.34;6201704;28;20205;-53
2023/11/24 13:05:48;;;;;;;0.20;0.10;;;;;;;4.71;90.05;96274.13;6201910;28;20220;-48
2023/11/24 13:08:50;;;;;;;0.30;0.20;;;;;;;4.52;91.92;96235.81;6208342;28;20304;-52
2023/11/24 13:11:52;;;;;;;0.37;0.20;;;;;;;4.63;92.37;96264.78;6202304;28;20326;-50
2023/11/24 13:14:54;;;;;;;0.40;0.37;;;;;;;4.58;90.72;96246.25;6205447;28;20198;-51
2023/11/24 13:17:56;;;;;;;0.60;0.30;;;;;;;4.54;91.12;96233.75;6207686;28;20200;-50
2023/11/24 13:20:58;;;;;;;0.30;0.20;;;;;;;4.60;90.95;96249.41;6200817;28;20682;-48
2023/11/24 13:24:00;;;;;;;0.50;0.40;;;;;;;4.55;91.47;96246.69;6199055;28;20210;-50
2023/11/24 13:27:03;;;;;;;1.17;0.30;;;;;;;4.48;92.66;96256.59;6199841;28;20752;-48
2023/11/24 13:30:09;;;;;;;0.63;0.27;;;;;;;4.38;94.17;96278.34;6196319;28;20608;-49
2023/11/24 13:33:11;;;;;;;0.10;0.10;;;;;;;4.34;94.90;96273.75;6204066;28;20613;-51
2023/11/24 13:36:14;;;;;;;1.13;0.63;;;;;;;4.29;94.46;96269.19;6207747;28;20605;-49
2023/11/24 13:39:22;;;;;;;0.87;0.30;;;;;;;4.20;95.50;96252.16;6188649;28;20323;-52
2023/11/24 13:42:24;;;;;;;0.10;0.10;;;;;;;4.14;95.64;96256.53;6200774;28;20684;-46
2023/11/24 13:45:27;;;;;;;1.50;0.20;;;;;;;4.11;96.91;96259.63;6211175;28;20295;-49
2023/11/24 13:48:29;;;;;;;0.20;0.20;;;;;;;3.96;97.83;96248.03;6201819;28;20724;-49
2023/11/24 13:51:31;;;;;;;0.40;0.20;;;;;;;4.11;96.28;96264.13;6206872;28;20356;-47
2023/11/24 13:54:35;;;;;;;0.67;0.20;;;;;;;4.08;97.51;96243.50;6214185;28;20185;-48
2023/11/24 13:57:37;;;;;;;0.10;0.10;;;;;;;4.18;95.80;96241.03;6206792;28;20201;-46
2023/11/24 14:00:39;;;;;;;0.20;0.13;;;;;;;4.32;93.89;96221.25;6210713;28;20193;-48
2023/11/24 14:03:42;;;;;;;0.10;0.10;;;;;;;4.17;94.43;96218.38;6217787;28;20235;-46
2023/11/24 14:06:50;;;;;;;0.10;0.10;;;;;;;4.12;94.87;96219.06;6201404;28;20193;-47
2023/11/24 14:09:54;;;;;;;0.30;0.13;;;;;;;4.31;91.99;96224.94;6206647;28;20208;-48
2023/11/24 14:12:56;;;;;;;0.47;0.10;;;;;;;4.26;92.41;96206.41;6217107;28;20291;-48
2023/11/24 14:15:59;;;;;;;0.20;0.20;;;;;;;4.18;92.88;96214.69;6215472;28;20276;-51
2023/11/24 14:19:01;;;;;;;0.80;0.30;;;;;;;4.33;91.74;96182.50;6207047;28;20200;-50
2023/11/24 14:22:05;;;;;;;0.30;0.27;;;;;;;4.30;91.58;96170.63;6213034;28;20334;-51
2023/11/24 14:25:08;;;;;;;0.87;0.20;;;;;;;4.35;90.19;96183.88;6212678;28;20363;-51
2023/11/24 14:28:10;;;;;;;0.33;0.23;;;;;;;4.22;92.40;96175.47;6196393;28;20208;-46
2023/11/24 14:31:12;;;;;;;1.40;0.27;;;;;;;4.22;92.08;96183.38;6209340;28;20228;-49
2023/11/24 14:34:16;;;;;;;0.10;0.10;;;;;;;4.25;91.20;96191.63;6201388;28;20189;-46